Time;durP1;ratioP1;P1;durP2;ratioP2;P2;SDS_P1;SDS_P2;PMS_P1;PMS_P2;Temp;Humidity;BMP_temperature;BMP_pressure;BME280_temperature;BME280_humidity;BME280_pressure;Samples;Min_cycle;Max_cycle;Signal;HPM_P1;HPM_P2
2022/08/28 00:00:15;;;;;;;3.25;2.50;;;;;;;22.64;76.57;100457.50;5012044;28;20393;-74
2022/08/28 00:02:45;;;;;;;2.40;2.05;;;;;;;22.61;75.50;100460.22;5011335;28;20054;-74
2022/08/28 00:05:15;;;;;;;2.95;2.50;;;;;;;22.61;76.45;100472.19;5012310;28;20057;-74
2022/08/28 00:07:44;;;;;;;2.22;2.00;;;;;;;22.60;76.46;100472.56;5011759;28;20061;-75
2022/08/28 00:10:17;;;;;;;2.28;2.08;;;;;;;22.63;75.70;100485.78;5011786;28;20523;-74
2022/08/28 00:12:50;;;;;;;3.85;2.70;;;;;;;22.60;76.07;100476.16;5011827;28;20515;-74
2022/08/28 00:15:23;;;;;;;3.58;2.67;;;;;;;22.45;75.69;100475.00;5013783;28;20046;-74
2022/08/28 00:17:51;;;;;;;7.32;2.42;;;;;;;22.42;75.59;100481.31;5031698;28;20045;-74
2022/08/28 00:20:20;;;;;;;2.47;2.15;;;;;;;22.48;75.69;100474.28;5031680;28;20056;-74
2022/08/28 00:22:49;;;;;;;4.65;3.13;;;;;;;22.47;75.23;100469.88;5031425;28;20045;-75
2022/08/28 00:25:22;;;;;;;2.65;1.98;;;;;;;22.51;75.79;100476.34;5031689;28;20072;-74
2022/08/28 00:27:52;;;;;;;3.38;2.67;;;;;;;22.53;75.04;100478.81;5031441;28;20056;-74
2022/08/28 00:30:29;;;;;;;2.63;2.42;;;;;;;22.45;74.80;100479.78;5031382;28;20049;-74
2022/08/28 00:33:11;;;;;;;3.15;2.85;;;;;;;22.48;74.72;100474.28;5031341;28;20072;-74
2022/08/28 00:35:41;;;;;;;2.47;2.28;;;;;;;22.45;75.03;100472.22;5031857;28;20042;-75
2022/08/28 00:38:11;;;;;;;4.05;2.40;;;;;;;22.49;75.04;100470.31;5034108;28;20065;-74
2022/08/28 00:40:43;;;;;;;2.50;2.30;;;;;;;22.51;75.68;100467.16;5035384;28;20049;-75
2022/08/28 00:43:25;;;;;;;5.97;2.60;;;;;;;22.47;74.69;100467.09;5034777;28;20052;-74
2022/08/28 00:45:52;;;;;;;2.67;2.47;;;;;;;22.51;74.33;100467.97;5035164;28;20416;-74
2022/08/28 00:48:20;;;;;;;4.35;2.42;;;;;;;22.64;73.34;100471.44;5035201;28;20053;-74
2022/08/28 00:53:35;;;;;;;2.85;2.42;;;;;;;22.59;73.63;100457.00;5035563;28;20049;-74
2022/08/28 00:56:07;;;;;;;2.60;2.40;;;;;;;22.59;72.22;100462.56;5034862;28;20049;-74
2022/08/28 00:58:43;;;;;;;3.10;2.08;;;;;;;22.68;72.66;100461.19;5033946;28;20045;-74
2022/08/28 01:01:13;;;;;;;2.70;1.80;;;;;;;22.70;71.75;100466.41;5034880;28;20061;-75
2022/08/28 01:03:41;;;;;;;4.82;2.20;;;;;;;22.66;71.00;100468.31;5034984;28;20049;-74
2022/08/28 01:06:12;;;;;;;3.08;2.17;;;;;;;22.65;71.67;100470.31;5034641;28;20052;-74
2022/08/28 01:08:44;;;;;;;2.55;2.25;;;;;;;22.61;71.46;100463.00;5034498;28;20057;-74
2022/08/28 01:11:19;;;;;;;1.90;1.80;;;;;;;22.65;72.21;100461.94;5034786;28;20133;-74
2022/08/28 01:13:47;;;;;;;2.28;2.08;;;;;;;22.64;72.15;100467.88;5034753;28;20045;-74
2022/08/28 01:16:17;;;;;;;2.83;1.67;;;;;;;22.53;72.36;100457.28;5034445;28;20056;-74
2022/08/28 01:18:48;;;;;;;2.80;2.30;;;;;;;22.46;73.78;100470.22;5034646;28;20046;-74
2022/08/28 01:21:26;;;;;;;3.65;2.15;;;;;;;22.55;74.21;100468.88;5034641;28;20061;-74
2022/08/28 01:24:17;;;;;;;2.75;1.60;;;;;;;22.70;72.69;100471.97;5034366;28;20046;-74
2022/08/28 01:26:46;;;;;;;4.03;1.92;;;;;;;22.64;73.61;100471.44;5034366;28;20057;-74
2022/08/28 01:29:14;;;;;;;3.63;2.38;;;;;;;22.62;73.40;100468.22;5033383;28;20056;-74
2022/08/28 01:31:42;;;;;;;2.75;2.35;;;;;;;22.55;73.45;100474.44;5034208;28;20078;-74
2022/08/28 01:34:11;;;;;;;2.80;2.20;;;;;;;22.49;74.46;100481.44;5034260;28;20049;-74
2022/08/28 01:36:40;;;;;;;2.83;2.13;;;;;;;22.62;74.30;100475.81;5034512;28;20042;-74
2022/08/28 01:39:12;;;;;;;3.22;2.40;;;;;;;22.62;74.47;100490.53;5034336;28;20053;-74
2022/08/28 01:41:44;;;;;;;3.60;2.63;;;;;;;22.68;74.44;100489.06;5032793;28;20049;-74
2022/08/28 01:44:14;;;;;;;3.58;2.50;;;;;;;22.57;74.62;100481.66;5034266;28;20080;-74
2022/08/28 01:46:45;;;;;;;3.75;2.67;;;;;;;22.62;74.52;100484.16;5034737;28;20377;-74
2022/08/28 01:49:13;;;;;;;3.05;2.38;;;;;;;22.58;74.17;100488.84;5033542;28;20538;-74
2022/08/28 01:51:41;;;;;;;4.68;2.58;;;;;;;22.57;74.32;100490.03;5034226;28;20396;-74
2022/08/28 01:54:10;;;;;;;3.92;2.67;;;;;;;22.57;74.27;100481.66;5034058;28;20514;-74
2022/08/28 01:56:39;;;;;;;5.65;2.50;;;;;;;22.44;75.43;100487.34;5033999;28;20484;-74
2022/08/28 01:59:09;;;;;;;4.70;3.08;;;;;;;22.48;75.31;100485.41;5033857;28;20057;-74
2022/08/28 02:01:38;;;;;;;5.38;2.97;;;;;;;22.57;74.32;100481.66;5033579;28;20535;-74
2022/08/28 02:04:06;;;;;;;4.93;3.00;;;;;;;22.52;75.08;100483.56;5034069;28;20053;-74
2022/08/28 02:06:35;;;;;;;2.80;2.50;;;;;;;22.47;74.94;100485.78;5033655;28;20055;-74
2022/08/28 02:09:05;;;;;;;5.38;2.55;;;;;;;22.48;75.36;100484.63;5033479;28;20052;-74
2022/08/28 02:11:42;;;;;;;4.68;2.50;;;;;;;22.59;74.08;100476.53;5033687;28;20048;-74
2022/08/28 02:14:14;;;;;;;2.55;2.35;;;;;;;22.62;73.87;100479.38;5033787;28;20049;-74
2022/08/28 02:16:42;;;;;;;2.45;2.25;;;;;;;22.61;73.74;100485.31;5033045;28;20060;-74
2022/08/28 02:19:10;;;;;;;3.78;2.47;;;;;;;22.44;75.73;100473.41;5033192;28;20049;-74
2022/08/28 02:21:39;;;;;;;4.32;2.65;;;;;;;22.49;75.34;100475.88;5032906;28;20407;-74
2022/08/28 02:24:08;;;;;;;3.83;2.28;;;;;;;22.54;73.63;100474.84;5033540;28;20049;-75
2022/08/28 02:26:37;;;;;;;3.63;2.80;;;;;;;22.45;74.39;100472.22;5033316;28;20045;-75
2022/08/28 02:29:05;;;;;;;4.60;2.67;;;;;;;22.34;74.99;100485.09;5033389;28;20412;-75
2022/08/28 02:31:32;;;;;;;3.33;2.35;;;;;;;22.37;75.80;100476.81;5033275;28;20057;-74
2022/08/28 02:34:00;;;;;;;3.28;2.88;;;;;;;22.32;75.80;100476.28;5033310;28;20400;-74
2022/08/28 02:36:29;;;;;;;3.72;2.53;;;;;;;22.32;75.36;100470.72;5033127;28;20058;-74
2022/08/28 02:38:57;;;;;;;4.78;2.47;;;;;;;22.19;76.50;100472.81;5032699;28;20045;-74
2022/08/28 02:41:25;;;;;;;6.88;3.70;;;;;;;22.22;76.77;100467.34;5033093;28;20512;-74
2022/08/28 02:43:53;;;;;;;3.95;2.67;;;;;;;22.23;75.76;100471.72;5033304;28;20068;-74
2022/08/28 02:46:22;;;;;;;4.40;2.97;;;;;;;22.20;75.34;100466.91;5032995;28;20145;-74
2022/08/28 02:48:50;;;;;;;6.40;3.22;;;;;;;22.18;75.02;100469.22;5032629;28;20053;-74
2022/08/28 02:51:18;;;;;;;4.57;3.20;;;;;;;22.12;75.46;100459.53;5032796;28;20421;-74
2022/08/28 02:53:48;;;;;;;3.97;3.15;;;;;;;22.10;75.64;100459.09;5033225;28;20515;-75
2022/08/28 02:56:16;;;;;;;5.25;3.05;;;;;;;22.13;75.41;100461.13;5032725;28;20049;-75
2022/08/28 02:58:44;;;;;;;4.32;3.08;;;;;;;22.11;74.96;100460.69;5032955;28;20057;-74
2022/08/28 03:01:12;;;;;;;3.72;3.40;;;;;;;22.06;75.86;100455.41;5033142;28;20400;-74
2022/08/28 03:03:41;;;;;;;3.65;2.53;;;;;;;22.09;75.66;100457.47;5033073;28;20053;-74
2022/08/28 03:06:11;;;;;;;3.25;2.75;;;;;;;22.05;75.89;100462.16;5032545;28;20045;-74
2022/08/28 03:08:40;;;;;;;6.35;3.20;;;;;;;21.91;76.09;100446.72;5032640;28;20526;-74
2022/08/28 03:11:09;;;;;;;3.72;2.75;;;;;;;21.92;76.78;100451.13;5032281;28;20058;-74
2022/08/28 03:13:37;;;;;;;3.67;2.80;;;;;;;21.87;76.37;100451.38;5005998;28;20053;-74
2022/08/28 03:16:05;;;;;;;5.00;3.17;;;;;;;21.83;77.55;100450.47;5031834;28;20492;-75
2022/08/28 03:18:33;;;;;;;2.95;2.70;;;;;;;21.89;77.40;100449.03;5032570;28;20056;-74
2022/08/28 03:21:01;;;;;;;6.35;3.50;;;;;;;21.80;78.31;100456.78;5032562;28;20037;-74
2022/08/28 03:23:30;;;;;;;3.55;2.97;;;;;;;21.91;78.09;100457.84;5032245;28;20057;-74
2022/08/28 03:26:04;;;;;;;4.25;2.70;;;;;;;21.87;77.03;100443.03;5031853;28;20045;-75
2022/08/28 03:28:37;;;;;;;4.00;2.92;;;;;;;21.94;76.35;100448.75;5032654;28;20057;-74
2022/08/28 03:31:10;;;;;;;4.10;3.17;;;;;;;21.78;77.72;100443.22;5032015;28;20053;-73
2022/08/28 03:33:43;;;;;;;4.03;2.88;;;;;;;21.78;77.78;100447.97;5032568;28;20053;-74
2022/08/28 03:36:14;;;;;;;3.25;2.80;;;;;;;21.72;78.40;100455.78;5018530;28;20041;-75
2022/08/28 03:38:42;;;;;;;4.68;2.60;;;;;;;21.73;78.09;100455.44;5032048;28;20042;-74
2022/08/28 03:41:16;;;;;;;5.95;3.03;;;;;;;21.73;78.58;100446.25;5031506;28;20045;-75
2022/08/28 03:43:44;;;;;;;3.08;2.38;;;;;;;21.72;79.06;100453.81;5031540;28;20057;-74
2022/08/28 03:46:17;;;;;;;4.22;2.67;;;;;;;21.76;79.07;100456.69;5032129;28;20053;-74
2022/08/28 03:48:46;;;;;;;3.20;2.65;;;;;;;21.73;78.91;100449.88;5031995;28;20057;-75
2022/08/28 03:51:17;;;;;;;6.95;2.88;;;;;;;21.81;78.10;100450.03;5031468;28;20052;-75
2022/08/28 03:53:49;;;;;;;3.40;2.40;;;;;;;21.83;77.92;100451.28;5032119;28;20042;-75
2022/08/28 03:56:21;;;;;;;4.95;2.55;;;;;;;21.85;78.31;100457.31;5031900;28;20511;-75
2022/08/28 03:58:51;;;;;;;3.65;2.80;;;;;;;21.86;78.37;100456.13;5032194;28;20515;-75
2022/08/28 04:01:20;;;;;;;4.18;2.75;;;;;;;21.85;77.83;100456.50;5012863;28;20071;-75
2022/08/28 04:03:48;;;;;;;4.05;2.30;;;;;;;21.82;78.13;100452.47;4996995;28;20054;-75
2022/08/28 04:06:16;;;;;;;3.30;2.78;;;;;;;21.81;78.35;100456.44;5007439;28;20057;-74
2022/08/28 04:08:44;;;;;;;3.38;2.72;;;;;;;21.79;78.20;100457.97;5009186;28;20061;-75
2022/08/28 04:11:12;;;;;;;5.38;3.25;;;;;;;21.80;77.58;100459.56;5011217;28;20069;-75
2022/08/28 04:13:40;;;;;;;3.85;2.60;;;;;;;21.72;77.66;100453.81;5014811;28;20054;-74
2022/08/28 04:16:12;;;;;;;8.68;3.40;;;;;;;21.67;78.39;100454.06;5025004;28;20040;-75
2022/08/28 04:18:42;;;;;;;3.25;2.95;;;;;;;21.62;77.59;100457.13;5035271;28;20109;-74
2022/08/28 04:21:12;;;;;;;3.92;2.85;;;;;;;21.68;77.11;100457.63;5035671;28;20060;-75
2022/08/28 04:23:42;;;;;;;3.92;2.78;;;;;;;21.56;77.90;100459.34;5035738;28;20049;-74
2022/08/28 04:26:23;;;;;;;5.43;3.03;;;;;;;21.59;77.71;100460.59;5035562;28;20045;-75
2022/08/28 04:28:53;;;;;;;6.78;2.90;;;;;;;21.61;77.99;100464.66;5035713;28;20056;-74
2022/08/28 04:31:23;;;;;;;4.25;2.90;;;;;;;21.56;78.94;100464.13;5035556;28;20112;-74
2022/08/28 04:34:01;;;;;;;4.53;2.92;;;;;;;21.65;77.61;100464.72;5035342;28;20397;-74
2022/08/28 04:36:29;;;;;;;5.15;3.45;;;;;;;21.54;77.94;100464.47;5035789;28;20061;-75
2022/08/28 04:38:57;;;;;;;5.70;3.03;;;;;;;21.47;78.58;100465.06;5035537;28;20053;-74
2022/08/28 04:41:26;;;;;;;4.03;2.63;;;;;;;21.58;78.36;100467.34;5035389;28;20056;-74
2022/08/28 04:43:56;;;;;;;5.95;3.08;;;;;;;21.57;78.65;100460.16;5035154;28;20061;-74
2022/08/28 04:46:24;;;;;;;4.00;3.03;;;;;;;21.64;77.92;100465.91;5034927;28;20050;-74
2022/08/28 04:48:52;;;;;;;5.25;3.35;;;;;;;21.57;77.99;100460.16;5034043;28;20049;-75
2022/08/28 04:51:20;;;;;;;4.00;3.13;;;;;;;;;;5035090;28;20045;-75
2022/08/28 04:53:48;;;;;;;3.75;2.67;;;;;;;21.64;77.31;100465.13;5035227;28;20500;-75
2022/08/28 04:56:17;;;;;;;4.40;2.83;;;;;;;21.65;77.77;100478.66;5035002;28;20037;-74
2022/08/28 04:58:44;;;;;;;4.57;3.10;;;;;;;21.58;78.72;100467.34;5035135;28;20052;-75
2022/08/28 05:01:19;;;;;;;5.25;2.97;;;;;;;21.55;78.66;100465.28;5034929;28;20053;-75
2022/08/28 05:03:56;;;;;;;4.80;3.33;;;;;;;21.57;78.64;100460.97;5034586;28;20049;-75
2022/08/28 05:06:26;;;;;;;3.78;2.83;;;;;;;21.61;78.52;100458.28;5035045;28;20038;-75
2022/08/28 05:08:59;;;;;;;5.47;3.00;;;;;;;21.73;77.63;100466.56;5034500;28;20057;-75
2022/08/28 05:11:29;;;;;;;3.42;2.65;;;;;;;21.79;77.05;100467.09;5034426;28;20052;-75
2022/08/28 05:14:03;;;;;;;5.57;3.17;;;;;;;21.83;77.03;100472.75;5034908;28;20053;-75
2022/08/28 05:16:38;;;;;;;4.18;2.75;;;;;;;21.90;76.51;100467.38;5034810;28;20504;-75
2022/08/28 05:19:06;;;;;;;6.93;3.00;;;;;;;22.20;75.56;100477.22;5034348;28;20125;-80
2022/08/28 05:21:34;;;;;;;4.85;2.92;;;;;;;22.77;73.18;100474.91;5034850;28;20053;-79
2022/08/28 05:24:02;;;;;;;4.03;2.80;;;;;;;23.09;71.29;100480.34;5034701;28;20107;-79
2022/08/28 05:26:31;;;;;;;5.53;3.10;;;;;;;23.38;70.20;100488.50;5023257;28;20046;-80
2022/08/28 05:28:59;;;;;;;2.88;2.60;;;;;;;23.21;70.03;100487.75;5031143;28;20052;-79
2022/08/28 05:31:29;;;;;;;3.90;2.80;;;;;;;23.29;70.37;100490.66;5034313;28;20060;-79
2022/08/28 05:33:58;;;;;;;3.60;2.78;;;;;;;23.64;69.18;100491.75;5034447;28;20029;-79
2022/08/28 05:36:30;;;;;;;3.40;2.60;;;;;;;23.74;69.22;100494.72;5033226;28;20041;-79
2022/08/28 05:39:02;;;;;;;4.10;2.78;;;;;;;24.11;67.71;100490.56;5034568;28;20408;-79
2022/08/28 05:41:31;;;;;;;4.38;2.60;;;;;;;24.23;67.93;100495.13;5034424;28;20064;-80
2022/08/28 05:44:02;;;;;;;7.18;2.50;;;;;;;24.20;67.81;100497.84;5034056;28;20046;-80
2022/08/28 05:46:31;;;;;;;3.20;2.80;;;;;;;24.26;67.26;100504.75;5032030;28;20041;-80
2022/08/28 05:49:02;;;;;;;3.58;2.42;;;;;;;24.32;66.88;100502.41;5028436;28;20060;-80
2022/08/28 05:51:39;;;;;;;5.72;3.17;;;;;;;24.14;67.75;100519.72;5031713;28;20041;-80
2022/08/28 05:54:07;;;;;;;2.78;2.47;;;;;;;23.88;67.68;100522.09;5016162;28;20061;-80
2022/08/28 05:56:37;;;;;;;2.95;2.60;;;;;;;23.69;69.14;100530.50;5016664;28;20042;-79
2022/08/28 05:59:06;;;;;;;4.85;2.90;;;;;;;23.86;68.39;100526.44;5017481;28;20045;-79
2022/08/28 06:01:43;;;;;;;3.13;2.10;;;;;;;24.07;67.99;100531.59;5024994;28;20045;-79
2022/08/28 06:04:16;;;;;;;2.92;2.55;;;;;;;24.15;67.06;100526.94;5033507;28;20049;-79
2022/08/28 06:06:45;;;;;;;2.33;1.92;;;;;;;24.20;66.30;100531.41;5033355;28;20048;-79
2022/08/28 06:09:18;;;;;;;2.63;2.30;;;;;;;24.49;65.63;100526.25;5033589;28;20045;-79
2022/08/28 06:11:47;;;;;;;4.20;2.57;;;;;;;24.45;65.60;100528.19;5031211;28;20054;-79
2022/08/28 06:14:26;;;;;;;3.17;2.20;;;;;;;24.47;65.18;100529.41;5025077;28;20381;-79
2022/08/28 06:16:55;;;;;;;2.88;2.13;;;;;;;24.64;64.99;100528.03;5033518;28;20068;-79
2022/08/28 06:19:26;;;;;;;2.83;2.47;;;;;;;24.65;63.97;100538.06;5028550;28;20053;-79
2022/08/28 06:21:56;;;;;;;2.25;2.03;;;;;;;24.81;64.39;100528.72;5018866;28;20060;-79
2022/08/28 06:24:25;;;;;;;4.53;2.42;;;;;;;24.75;64.84;100533.81;5029664;28;20057;-80
2022/08/28 06:26:53;;;;;;;2.70;2.28;;;;;;;24.98;64.17;100546.13;5033215;28;20042;-79
2022/08/28 06:29:26;;;;;;;4.45;2.70;;;;;;;25.03;63.98;100543.78;5031010;28;20068;-79
2022/08/28 06:31:56;;;;;;;2.88;2.50;;;;;;;25.02;64.13;100546.97;5033061;28;20057;-79
2022/08/28 06:34:25;;;;;;;7.22;2.80;;;;;;;25.09;63.96;100545.06;5032269;28;20057;-79
2022/08/28 06:36:53;;;;;;;4.18;2.35;;;;;;;25.09;64.08;100550.66;5032897;28;20052;-79
2022/08/28 06:39:22;;;;;;;2.58;2.35;;;;;;;24.95;63.91;100554.09;5032580;28;20053;-79
2022/08/28 06:41:50;;;;;;;2.90;2.50;;;;;;;24.91;63.65;100555.22;5032789;28;20046;-79
2022/08/28 06:44:20;;;;;;;2.90;2.58;;;;;;;25.14;62.91;100549.53;5033160;28;20049;-79
2022/08/28 06:46:51;;;;;;;5.63;2.88;;;;;;;25.35;62.49;100546.16;5033318;28;20053;-79
2022/08/28 06:49:19;;;;;;;4.40;2.95;;;;;;;25.46;63.20;100551.09;5033028;28;20065;-80
2022/08/28 06:51:48;;;;;;;6.43;2.60;;;;;;;25.39;62.44;100554.59;5032927;28;20041;-80
2022/08/28 06:54:16;;;;;;;4.28;3.00;;;;;;;25.34;62.75;100560.56;5031044;28;20053;-80
2022/08/28 06:56:51;;;;;;;2.90;2.63;;;;;;;25.48;62.26;100559.91;5012063;28;20389;-80
2022/08/28 06:59:19;;;;;;;3.67;2.97;;;;;;;25.53;62.48;100572.75;5020916;28;20057;-80
2022/08/28 07:01:47;;;;;;;4.38;3.15;;;;;;;25.66;62.33;100567.72;5026571;28;20392;-80
2022/08/28 07:04:15;;;;;;;4.75;2.85;;;;;;;25.75;60.02;100569.03;5032654;28;20054;-80
2022/08/28 07:06:44;;;;;;;3.80;3.25;;;;;;;25.83;59.97;100560.69;5013299;28;20052;-80
2022/08/28 07:09:14;;;;;;;4.75;3.22;;;;;;;25.99;59.29;100582.84;5024567;28;20041;-80
2022/08/28 07:11:47;;;;;;;4.15;2.88;;;;;;;26.05;59.98;100583.31;5032641;28;20784;-80
2022/08/28 07:14:15;;;;;;;5.25;3.00;;;;;;;26.23;60.27;100584.28;5014348;28;20393;-80
2022/08/28 07:16:43;;;;;;;3.55;2.90;;;;;;;26.02;59.10;100588.50;5013741;28;20057;-79
2022/08/28 07:19:12;;;;;;;5.05;3.05;;;;;;;26.10;59.32;100592.16;5018109;28;20178;-79
2022/08/28 07:21:42;;;;;;;5.03;2.92;;;;;;;26.20;58.52;100587.81;5028562;28;20042;-79
2022/08/28 07:24:13;;;;;;;4.10;2.63;;;;;;;26.36;58.12;100589.59;5025210;28;20529;-78
2022/08/28 07:26:43;;;;;;;3.05;2.63;;;;;;;26.19;57.72;100580.59;5012005;28;20046;-80
2022/08/28 07:29:11;;;;;;;4.78;2.30;;;;;;;26.23;56.68;100597.50;5016677;28;20058;-81
2022/08/28 07:31:45;;;;;;;2.53;2.15;;;;;;;26.39;57.33;100598.03;5007816;28;20053;-81
2022/08/28 07:34:15;;;;;;;5.55;2.50;;;;;;;26.32;56.92;100594.38;5024272;28;20057;-81
2022/08/28 07:36:43;;;;;;;3.45;2.47;;;;;;;26.31;57.29;100593.56;5031184;28;20042;-81
2022/08/28 07:39:13;;;;;;;3.97;2.15;;;;;;;26.43;55.84;100606.47;5022838;28;20049;-81
2022/08/28 07:41:41;;;;;;;3.25;2.35;;;;;;;26.67;56.13;100598.63;5031188;28;20045;-81
2022/08/28 07:47:02;;;;;;;2.78;2.53;;;;;;;26.83;55.89;100607.56;5026208;28;20085;-81
2022/08/28 07:49:32;;;;;;;4.53;2.70;;;;;;;26.73;53.60;100611.09;5024525;28;20057;-81
2022/08/28 07:52:01;;;;;;;4.80;3.08;;;;;;;26.66;54.83;100608.25;5031105;28;20048;-81
2022/08/28 07:54:29;;;;;;;3.63;2.13;;;;;;;26.79;54.75;100609.53;5030494;28;20042;-81
2022/08/28 07:56:57;;;;;;;4.20;3.22;;;;;;;26.70;54.23;100614.69;5029719;28;20045;-81
2022/08/28 07:59:28;;;;;;;3.63;2.90;;;;;;;26.84;54.17;100617.56;5031429;28;20046;-81
2022/08/28 08:02:05;;;;;;;2.55;2.22;;;;;;;27.00;54.04;100616.50;5019473;28;20060;-81
2022/08/28 08:04:33;;;;;;;5.25;3.35;;;;;;;26.78;54.30;100619.16;5018767;28;20061;-81
2022/08/28 08:07:03;;;;;;;4.20;2.83;;;;;;;26.94;53.95;100612.47;5016142;28;20057;-81
2022/08/28 08:09:36;;;;;;;3.97;2.65;;;;;;;27.00;53.90;100616.50;5027900;28;20080;-81
2022/08/28 08:12:05;;;;;;;4.10;3.25;;;;;;;26.98;54.26;100623.72;5014334;28;20057;-80
2022/08/28 08:14:41;;;;;;;4.30;3.20;;;;;;;27.05;54.69;100623.75;5012177;28;20110;-78
2022/08/28 08:17:09;;;;;;;4.65;3.38;;;;;;;27.28;53.41;100625.47;5014970;28;20053;-79
2022/08/28 08:19:38;;;;;;;5.32;2.88;;;;;;;27.19;53.94;100635.06;5006689;28;20065;-79
2022/08/28 08:22:06;;;;;;;3.35;2.92;;;;;;;27.38;53.71;100635.94;5004149;28;20050;-78
2022/08/28 08:24:34;;;;;;;5.28;3.45;;;;;;;27.41;54.11;100634.34;5011422;28;20050;-79
2022/08/28 08:27:02;;;;;;;3.67;2.90;;;;;;;27.02;53.92;100630.94;5011528;28;20053;-78
2022/08/28 08:29:36;;;;;;;3.53;3.08;;;;;;;27.13;52.85;100631.03;5010777;28;20050;-79
2022/08/28 08:32:08;;;;;;;4.70;3.17;;;;;;;27.15;52.92;100628.63;5009103;28;20057;-78
2022/08/28 08:34:39;;;;;;;4.93;3.38;;;;;;;27.32;54.25;100629.88;5010645;28;20046;-78
2022/08/28 08:37:08;;;;;;;3.83;3.30;;;;;;;27.36;53.03;100627.91;5011134;28;20057;-78
2022/08/28 08:39:36;;;;;;;4.68;3.58;;;;;;;27.49;53.05;100633.16;5010856;28;20045;-78
2022/08/28 08:42:09;;;;;;;6.00;3.13;;;;;;;27.66;51.04;100622.41;5011065;28;20042;-79
2022/08/28 08:44:40;;;;;;;4.90;3.20;;;;;;;27.74;50.88;100627.66;5011119;28;20046;-78
2022/08/28 08:47:42;;;;;;;5.30;3.22;;;;;;;27.84;50.84;100628.06;5010933;28;20048;-79
2022/08/28 08:50:17;;;;;;;5.05;3.78;;;;;;;27.71;49.95;100624.84;5006244;28;20057;-79
2022/08/28 08:53:17;;;;;;;4.40;3.20;;;;;;;27.73;50.65;100616.81;5010360;28;20052;-79
2022/08/28 08:55:49;;;;;;;4.45;3.30;;;;;;;27.76;50.11;100616.03;5010203;28;20050;-79
2022/08/28 08:58:33;;;;;;;3.67;3.10;;;;;;;27.89;50.96;100617.25;5010802;28;20057;-79
2022/08/28 09:01:26;;;;;;;3.60;2.90;;;;;;;27.64;51.16;100614.38;5013012;28;20054;-79
2022/08/28 09:04:15;;;;;;;4.10;3.03;;;;;;;27.73;50.39;100622.41;5014112;28;20049;-78
2022/08/28 09:06:50;;;;;;;4.68;2.90;;;;;;;27.94;50.44;100623.69;5013805;28;20045;-78
2022/08/28 09:09:32;;;;;;;5.05;3.17;;;;;;;27.92;50.64;100623.25;5014611;28;20053;-78
2022/08/28 09:12:05;;;;;;;4.05;3.13;;;;;;;27.97;50.71;100622.88;5013564;28;20049;-78
2022/08/28 09:14:36;;;;;;;4.85;3.28;;;;;;;27.96;52.25;100629.69;5011668;28;20065;-78
2022/08/28 09:17:07;;;;;;;3.80;3.00;;;;;;;28.11;51.27;100614.44;5014291;28;20060;-79
2022/08/28 09:19:35;;;;;;;6.80;3.47;;;;;;;28.28;51.64;100614.88;5011465;28;20050;-79
2022/08/28 09:22:03;;;;;;;5.82;3.47;;;;;;;28.27;51.29;100611.28;5020271;28;20037;-78
2022/08/28 09:24:35;;;;;;;7.03;4.18;;;;;;;28.25;51.66;100610.06;5013058;28;20501;-78
2022/08/28 09:27:07;;;;;;;6.30;3.92;;;;;;;28.41;51.07;100609.66;4996611;28;20053;-78
2022/08/28 09:29:45;;;;;;;6.65;3.88;;;;;;;28.17;51.73;100624.09;5003007;28;20046;-78
2022/08/28 09:32:25;;;;;;;5.05;3.83;;;;;;;28.27;52.63;100616.91;5012379;28;20050;-77
2022/08/28 09:35:01;;;;;;;5.38;3.60;;;;;;;28.30;51.41;100615.28;5013839;28;20488;-77
2022/08/28 09:37:37;;;;;;;5.03;4.15;;;;;;;28.44;51.01;100620.91;5013493;28;20042;-78
2022/08/28 09:40:21;;;;;;;6.10;3.72;;;;;;;28.30;51.83;100609.66;5014852;28;20056;-79
2022/08/28 09:43:26;;;;;;;6.47;3.80;;;;;;;28.41;51.96;100618.09;5012713;28;20041;-78
2022/08/28 09:46:26;;;;;;;4.00;3.63;;;;;;;28.29;51.80;100610.84;5013857;28;20053;-78
2022/08/28 09:49:08;;;;;;;5.60;4.00;;;;;;;28.56;49.81;100616.06;5013818;28;20053;-79
2022/08/28 09:51:38;;;;;;;4.43;3.67;;;;;;;28.65;49.98;100613.66;5012446;28;20049;-78
2022/08/28 09:54:42;;;;;;;5.28;4.13;;;;;;;28.70;50.51;100620.88;5010732;28;20046;-77
2022/08/28 09:57:10;;;;;;;4.43;3.85;;;;;;;28.88;51.52;100622.88;5005280;28;20064;-77
2022/08/28 09:59:41;;;;;;;6.60;4.60;;;;;;;28.93;49.95;100626.06;5007499;28;20779;-78
2022/08/28 10:02:52;;;;;;;6.25;3.75;;;;;;;28.82;50.47;100628.09;5010071;28;20065;-77
2022/08/28 10:05:55;;;;;;;5.53;3.75;;;;;;;28.68;51.26;100618.47;5003625;28;20500;-78
2022/08/28 10:08:28;;;;;;;4.90;3.83;;;;;;;29.13;50.26;100630.44;5002631;28;20046;-79
2022/08/28 10:11:12;;;;;;;5.75;4.03;;;;;;;29.05;50.16;100618.41;5008195;28;20064;-79
2022/08/28 10:13:59;;;;;;;6.72;4.68;;;;;;;29.00;50.57;100621.63;5007433;28;20035;-78
2022/08/28 10:16:45;;;;;;;8.15;4.32;;;;;;;28.92;50.58;100620.84;5005380;28;20069;-79
2022/08/28 10:19:13;;;;;;;7.07;4.60;;;;;;;28.88;50.49;100628.50;5009833;28;20079;-79
2022/08/28 10:22:01;;;;;;;7.07;4.05;;;;;;;28.82;50.48;100622.44;5006598;28;20042;-80
2022/08/28 10:24:58;;;;;;;6.53;4.05;;;;;;;28.99;48.97;100625.66;5012313;28;20058;-80
2022/08/28 10:27:39;;;;;;;7.35;4.10;;;;;;;29.17;49.36;100625.63;5011098;28;20512;-79
2022/08/28 10:30:16;;;;;;;5.57;3.88;;;;;;;29.31;49.04;100619.09;5009142;28;20053;-80
2022/08/28 10:32:56;;;;;;;6.28;4.50;;;;;;;29.17;48.48;100620.78;5011964;28;20448;-78
2022/08/28 10:35:47;;;;;;;7.35;4.38;;;;;;;29.07;49.99;100613.97;5037991;28;20054;-80
2022/08/28 10:38:21;;;;;;;5.50;3.85;;;;;;;29.03;50.42;100609.56;5012852;28;20061;-80
2022/08/28 10:41:04;;;;;;;6.20;3.70;;;;;;;29.14;48.72;100601.88;5012933;28;20038;-81
2022/08/28 10:43:42;;;;;;;5.70;4.80;;;;;;;29.30;49.82;100615.50;5013045;28;20410;-80
2022/08/28 10:46:19;;;;;;;6.53;4.47;;;;;;;29.40;49.29;100605.38;5012668;28;20405;-81
2022/08/28 10:49:04;;;;;;;6.03;4.05;;;;;;;29.81;48.76;100603.94;5013073;28;20054;-81
2022/08/28 10:51:55;;;;;;;6.93;4.53;;;;;;;29.74;48.61;100598.38;5013093;28;20464;-81
2022/08/28 10:54:33;;;;;;;5.38;4.38;;;;;;;29.76;48.50;100604.41;5012550;28;20408;-80
2022/08/28 10:57:21;;;;;;;6.22;4.00;;;;;;;29.81;48.40;100598.31;5013026;28;20061;-81
2022/08/28 10:59:51;;;;;;;4.90;3.85;;;;;;;29.74;47.65;100595.53;5007346;28;20046;-81
2022/08/28 11:02:23;;;;;;;4.38;3.97;;;;;;;29.89;49.05;100587.78;5006579;28;20381;-81
2022/08/28 11:04:56;;;;;;;6.10;4.25;;;;;;;29.83;48.52;100587.44;5003744;28;20056;-81
2022/08/28 11:07:36;;;;;;;6.20;4.10;;;;;;;29.95;46.99;100597.41;5001143;28;20062;-81
2022/08/28 11:10:23;;;;;;;5.88;4.18;;;;;;;29.96;49.17;100599.00;5010437;28;20053;-81
2022/08/28 11:12:53;;;;;;;5.85;4.35;;;;;;;29.97;47.78;100602.66;4977511;28;20053;-81
2022/08/28 11:15:30;;;;;;;8.70;4.13;;;;;;;30.17;47.45;100603.72;4992194;28;20056;-81
2022/08/28 11:18:16;;;;;;;5.63;4.30;;;;;;;30.35;47.22;100601.97;5008630;28;20045;-80
2022/08/28 11:21:11;;;;;;;6.78;3.92;;;;;;;30.48;45.86;100603.03;5006428;28;20412;-80
2022/08/28 11:23:51;;;;;;;5.55;3.97;;;;;;;30.61;45.38;100596.88;5008356;28;20488;-80
2022/08/28 11:26:33;;;;;;;3.95;3.55;;;;;;;30.79;44.31;100596.72;5009877;28;20046;-81
2022/08/28 11:29:03;;;;;;;5.72;3.75;;;;;;;30.81;43.93;100602.75;5007805;28;20049;-80
2022/08/28 11:31:36;;;;;;;4.95;4.13;;;;;;;30.69;45.29;100596.41;5000670;28;20057;-80
2022/08/28 11:34:05;;;;;;;5.70;3.90;;;;;;;30.84;45.34;100590.63;5006120;28;20046;-79
2022/08/28 11:36:34;;;;;;;7.60;3.70;;;;;;;30.83;43.23;100605.94;5007414;28;20049;-79
2022/08/28 11:39:18;;;;;;;6.65;3.67;;;;;;;31.07;44.33;100594.75;5005452;28;20417;-79
2022/08/28 11:42:12;;;;;;;5.40;3.95;;;;;;;31.20;43.51;100600.66;5006168;28;20042;-79
2022/08/28 11:44:45;;;;;;;8.63;4.20;;;;;;;30.90;43.62;100596.59;5017010;28;20050;-80
2022/08/28 11:47:38;;;;;;;5.35;3.47;;;;;;;30.97;43.10;100596.50;5008634;28;20278;-78
2022/08/28 11:50:23;;;;;;;5.68;4.03;;;;;;;31.22;44.06;100589.72;5009049;28;20045;-78
2022/08/28 11:53:13;;;;;;;4.47;4.07;;;;;;;31.19;44.03;100593.41;5006676;28;20046;-79
2022/08/28 11:56:08;;;;;;;5.82;3.55;;;;;;;31.04;44.23;100578.66;5006677;28;20519;-79
2022/08/28 11:59:20;;;;;;;3.65;3.28;;;;;;;31.31;43.23;100589.25;5004047;28;20050;-80